sensor_id;sensor_type;location;lat;lon;timestamp;temperature;humidity
4637;DHT22;2331;48.806;9.140;2022-09-09T00:00:13;19.60;1.00
4637;DHT22;2331;48.806;9.140;2022-09-09T00:02:41;19.50;1.00
4637;DHT22;2331;48.806;9.140;2022-09-09T00:05:17;19.50;1.00
4637;DHT22;2331;48.806;9.140;2022-09-09T00:07:51;19.60;1.00
4637;DHT22;2331;48.806;9.140;2022-09-09T00:10:23;19.50;1.00
4637;DHT22;2331;48.806;9.140;2022-09-09T00:12:57;19.40;1.00
4637;DHT22;2331;48.806;9.140;2022-09-09T00:15:30;19.50;1.00
4637;DHT22;2331;48.806;9.140;2022-09-09T00:18:05;19.40;1.00
4637;DHT22;2331;48.806;9.140;2022-09-09T00:20:39;19.40;1.00
4637;DHT22;2331;48.806;9.140;2022-09-09T00:23:12;19.30;1.00
4637;DHT22;2331;48.806;9.140;2022-09-09T00:25:49;19.30;1.00
4637;DHT22;2331;48.806;9.140;2022-09-09T00:28:20;19.30;1.00
4637;DHT22;2331;48.806;9.140;2022-09-09T00:30:48;19.30;1.00
4637;DHT22;2331;48.806;9.140;2022-09-09T00:33:17;19.30;1.00
4637;DHT22;2331;48.806;9.140;2022-09-09T00:35:49;19.30;1.00
4637;DHT22;2331;48.806;9.140;2022-09-09T00:38:23;19.20;1.00
4637;DHT22;2331;48.806;9.140;2022-09-09T00:40:59;19.20;1.00
4637;DHT22;2331;48.806;9.140;2022-09-09T00:43:29;19.20;1.00
4637;DHT22;2331;48.806;9.140;2022-09-09T00:46:19;19.20;1.00
4637;DHT22;2331;48.806;9.140;2022-09-09T00:48:54;19.10;1.00
4637;DHT22;2331;48.806;9.140;2022-09-09T00:51:30;19.10;1.00
4637;DHT22;2331;48.806;9.140;2022-09-09T00:54:22;19.10;1.00
4637;DHT22;2331;48.806;9.140;2022-09-09T00:56:58;19.10;1.00
4637;DHT22;2331;48.806;9.140;2022-09-09T00:59:34;19.10;1.00
4637;DHT22;2331;48.806;9.140;2022-09-09T01:02:15;19.10;1.00
4637;DHT22;2331;48.806;9.140;2022-09-09T01:04:44;19.20;1.00
4637;DHT22;2331;48.806;9.140;2022-09-09T01:07:16;19.20;1.00
4637;DHT22;2331;48.806;9.140;2022-09-09T01:09:52;19.20;1.00
4637;DHT22;2331;48.806;9.140;2022-09-09T01:12:26;19.20;1.00
4637;DHT22;2331;48.806;9.140;2022-09-09T01:15:01;19.30;1.00
4637;DHT22;2331;48.806;9.140;2022-09-09T01:17:34;19.20;1.00
4637;DHT22;2331;48.806;9.140;2022-09-09T01:20:13;19.20;1.00
4637;DHT22;2331;48.806;9.140;2022-09-09T01:22:52;19.30;1.00
4637;DHT22;2331;48.806;9.140;2022-09-09T01:28:47;19.20;1.00
4637;DHT22;2331;48.806;9.140;2022-09-09T01:31:18;19.10;1.00
4637;DHT22;2331;48.806;9.140;2022-09-09T01:33:46;19.10;1.00
4637;DHT22;2331;48.806;9.140;2022-09-09T01:36:18;19.00;1.00
4637;DHT22;2331;48.806;9.140;2022-09-09T01:38:46;19.00;1.00
4637;DHT22;2331;48.806;9.140;2022-09-09T01:41:13;19.10;1.00
4637;DHT22;2331;48.806;9.140;2022-09-09T01:43:40;19.00;1.00
4637;DHT22;2331;48.806;9.140;2022-09-09T01:46:08;19.00;1.00
4637;DHT22;2331;48.806;9.140;2022-09-09T01:48:36;19.00;1.00
4637;DHT22;2331;48.806;9.140;2022-09-09T01:51:03;19.10;1.00
4637;DHT22;2331;48.806;9.140;2022-09-09T01:53:30;18.90;1.00
4637;DHT22;2331;48.806;9.140;2022-09-09T01:56:04;18.90;1.00
4637;DHT22;2331;48.806;9.140;2022-09-09T01:58:47;19.00;1.00
4637;DHT22;2331;48.806;9.140;2022-09-09T02:01:27;19.00;1.00
4637;DHT22;2331;48.806;9.140;2022-09-09T02:04:02;19.00;1.00
4637;DHT22;2331;48.806;9.140;2022-09-09T02:06:35;19.00;1.00
4637;DHT22;2331;48.806;9.140;2022-09-09T02:09:04;19.10;1.00
4637;DHT22;2331;48.806;9.140;2022-09-09T02:11:32;19.20;1.00
4637;DHT22;2331;48.806;9.140;2022-09-09T02:14:02;19.20;1.00
4637;DHT22;2331;48.806;9.140;2022-09-09T02:16:37;19.20;1.00
4637;DHT22;2331;48.806;9.140;2022-09-09T02:19:08;19.10;1.00
4637;DHT22;2331;48.806;9.140;2022-09-09T02:21:36;19.20;1.00
4637;DHT22;2331;48.806;9.140;2022-09-09T02:24:05;19.10;1.00
4637;DHT22;2331;48.806;9.140;2022-09-09T02:26:37;19.10;1.00
4637;DHT22;2331;48.806;9.140;2022-09-09T02:29:09;19.00;1.00
4637;DHT22;2331;48.806;9.140;2022-09-09T02:31:39;19.10;1.00
4637;DHT22;2331;48.806;9.140;2022-09-09T02:34:09;19.10;1.00
4637;DHT22;2331;48.806;9.140;2022-09-09T02:36:38;19.00;1.00
4637;DHT22;2331;48.806;9.140;2022-09-09T02:39:14;19.00;1.00
4637;DHT22;2331;48.806;9.140;2022-09-09T02:41:41;19.10;1.00
4637;DHT22;2331;48.806;9.140;2022-09-09T02:44:10;19.10;1.00
4637;DHT22;2331;48.806;9.140;2022-09-09T02:46:53;19.00;1.00
4637;DHT22;2331;48.806;9.140;2022-09-09T02:49:30;19.00;1.00
4637;DHT22;2331;48.806;9.140;2022-09-09T02:52:02;19.00;1.00
4637;DHT22;2331;48.806;9.140;2022-09-09T02:54:33;19.00;1.00
4637;DHT22;2331;48.806;9.140;2022-09-09T02:57:04;18.90;1.00
4637;DHT22;2331;48.806;9.140;2022-09-09T02:59:32;18.90;1.00
4637;DHT22;2331;48.806;9.140;2022-09-09T03:02:00;18.90;1.00
4637;DHT22;2331;48.806;9.140;2022-09-09T03:04:28;18.90;1.00
4637;DHT22;2331;48.806;9.140;2022-09-09T03:06:56;18.80;1.00
4637;DHT22;2331;48.806;9.140;2022-09-09T03:09:23;18.80;1.00
4637;DHT22;2331;48.806;9.140;2022-09-09T03:11:51;18.80;1.00
4637;DHT22;2331;48.806;9.140;2022-09-09T03:14:18;18.80;1.00
4637;DHT22;2331;48.806;9.140;2022-09-09T03:16:46;18.80;1.00
4637;DHT22;2331;48.806;9.140;2022-09-09T03:19:15;18.70;1.00
4637;DHT22;2331;48.806;9.140;2022-09-09T03:21:41;18.60;1.00
4637;DHT22;2331;48.806;9.140;2022-09-09T03:24:08;18.50;1.00
4637;DHT22;2331;48.806;9.140;2022-09-09T03:26:35;18.60;1.00
4637;DHT22;2331;48.806;9.140;2022-09-09T03:29:03;18.70;1.00
4637;DHT22;2331;48.806;9.140;2022-09-09T03:31:32;18.60;1.00
4637;DHT22;2331;48.806;9.140;2022-09-09T03:33:58;18.60;1.00
4637;DHT22;2331;48.806;9.140;2022-09-09T03:36:26;18.60;1.00
4637;DHT22;2331;48.806;9.140;2022-09-09T03:38:54;18.50;1.00
4637;DHT22;2331;48.806;9.140;2022-09-09T03:41:21;18.60;1.00
4637;DHT22;2331;48.806;9.140;2022-09-09T03:43:49;18.50;1.00
4637;DHT22;2331;48.806;9.140;2022-09-09T03:46:16;18.50;1.00
4637;DHT22;2331;48.806;9.140;2022-09-09T03:48:42;18.50;1.00
4637;DHT22;2331;48.806;9.140;2022-09-09T03:51:09;18.40;1.00
4637;DHT22;2331;48.806;9.140;2022-09-09T03:53:38;18.50;1.00
4637;DHT22;2331;48.806;9.140;2022-09-09T03:56:05;18.40;1.00
4637;DHT22;2331;48.806;9.140;2022-09-09T03:58:33;18.40;1.00
4637;DHT22;2331;48.806;9.140;2022-09-09T04:01:03;18.40;1.00
4637;DHT22;2331;48.806;9.140;2022-09-09T04:03:29;18.40;1.00
4637;DHT22;2331;48.806;9.140;2022-09-09T04:05:58;18.40;1.00
4637;DHT22;2331;48.806;9.140;2022-09-09T04:08:26;18.40;1.00
4637;DHT22;2331;48.806;9.140;2022-09-09T04:11:01;18.40;1.00
4637;DHT22;2331;48.806;9.140;2022-09-09T04:13:32;18.50;1.00
4637;DHT22;2331;48.806;9.140;2022-09-09T04:16:00;18.50;1.00
4637;DHT22;2331;48.806;9.140;2022-09-09T04:18:27;18.50;1.00
4637;DHT22;2331;48.806;9.140;2022-09-09T04:20:55;18.50;1.00
4637;DHT22;2331;48.806;9.140;2022-09-09T04:23:22;18.60;1.00
4637;DHT22;2331;48.806;9.140;2022-09-09T04:25:51;18.60;1.00
4637;DHT22;2331;48.806;9.140;2022-09-09T04:28:20;18.60;1.00
4637;DHT22;2331;48.806;9.140;2022-09-09T04:30:47;18.60;1.00
4637;DHT22;2331;48.806;9.140;2022-09-09T04:33:15;18.60;1.00
4637;DHT22;2331;48.806;9.140;2022-09-09T04:35:44;18.50;1.00
4637;DHT22;2331;48.806;9.140;2022-09-09T04:38:11;18.60;1.00
4637;DHT22;2331;48.806;9.140;2022-09-09T04:40:38;18.60;1.00
4637;DHT22;2331;48.806;9.140;2022-09-09T04:43:06;18.70;1.00
4637;DHT22;2331;48.806;9.140;2022-09-09T04:45:34;18.60;1.00
4637;DHT22;2331;48.806;9.140;2022-09-09T04:48:01;18.60;1.00
4637;DHT22;2331;48.806;9.140;2022-09-09T04:50:28;18.60;1.00
4637;DHT22;2331;48.806;9.140;2022-09-09T04:52:55;18.60;1.00
4637;DHT22;2331;48.806;9.140;2022-09-09T04:55:21;18.60;1.00
4637;DHT22;2331;48.806;9.140;2022-09-09T04:57:48;18.50;1.00
4637;DHT22;2331;48.806;9.140;2022-09-09T05:00:15;18.40;1.00
4637;DHT22;2331;48.806;9.140;2022-09-09T05:02:44;18.40;1.00
4637;DHT22;2331;48.806;9.140;2022-09-09T05:05:10;18.30;1.00
4637;DHT22;2331;48.806;9.140;2022-09-09T05:07:37;18.30;1.00
4637;DHT22;2331;48.806;9.140;2022-09-09T05:10:05;18.30;1.00
4637;DHT22;2331;48.806;9.140;2022-09-09T05:12:32;18.30;1.00
4637;DHT22;2331;48.806;9.140;2022-09-09T05:14:58;18.30;1.00
4637;DHT22;2331;48.806;9.140;2022-09-09T05:17:25;18.40;1.00
4637;DHT22;2331;48.806;9.140;2022-09-09T05:19:54;18.30;1.00
4637;DHT22;2331;48.806;9.140;2022-09-09T05:22:21;18.40;1.00
4637;DHT22;2331;48.806;9.140;2022-09-09T05:24:48;18.40;1.00
4637;DHT22;2331;48.806;9.140;2022-09-09T05:27:16;18.40;1.00
4637;DHT22;2331;48.806;9.140;2022-09-09T05:29:44;18.40;1.00
4637;DHT22;2331;48.806;9.140;2022-09-09T05:32:12;18.40;1.00
4637;DHT22;2331;48.806;9.140;2022-09-09T05:34:39;18.40;1.00
4637;DHT22;2331;48.806;9.140;2022-09-09T05:37:07;18.50;1.00
4637;DHT22;2331;48.806;9.140;2022-09-09T05:39:34;18.40;1.00
4637;DHT22;2331;48.806;9.140;2022-09-09T05:42:02;18.40;1.00
4637;DHT22;2331;48.806;9.140;2022-09-09T05:44:30;18.50;1.00
4637;DHT22;2331;48.806;9.140;2022-09-09T05:46:57;18.50;1.00
4637;DHT22;2331;48.806;9.140;2022-09-09T05:49:24;18.50;1.00
4637;DHT22;2331;48.806;9.140;2022-09-09T05:51:51;18.60;1.00
4637;DHT22;2331;48.806;9.140;2022-09-09T05:54:19;18.70;1.00
4637;DHT22;2331;48.806;9.140;2022-09-09T05:56:46;18.60;1.00
4637;DHT22;2331;48.806;9.140;2022-09-09T05:59:15;18.60;1.00
4637;DHT22;2331;48.806;9.140;2022-09-09T06:01:41;18.60;1.00
4637;DHT22;2331;48.806;9.140;2022-09-09T06:04:08;18.60;1.00
4637;DHT22;2331;48.806;9.140;2022-09-09T06:06:36;18.60;1.00
4637;DHT22;2331;48.806;9.140;2022-09-09T06:09:06;18.60;1.00
4637;DHT22;2331;48.806;9.140;2022-09-09T06:11:37;18.70;1.00
4637;DHT22;2331;48.806;9.140;2022-09-09T06:14:10;18.70;1.00
4637;DHT22;2331;48.806;9.140;2022-09-09T06:20:19;18.80;1.00
4637;DHT22;2331;48.806;9.140;2022-09-09T06:26:11;18.80;1.00
4637;DHT22;2331;48.806;9.140;2022-09-09T06:28:40;18.80;1.00
4637;DHT22;2331;48.806;9.140;2022-09-09T06:31:10;18.90;1.00
4637;DHT22;2331;48.806;9.140;2022-09-09T06:33:38;18.80;1.00
4637;DHT22;2331;48.806;9.140;2022-09-09T06:36:07;18.90;1.00
4637;DHT22;2331;48.806;9.140;2022-09-09T06:38:36;18.90;1.00
4637;DHT22;2331;48.806;9.140;2022-09-09T06:41:03;18.90;1.00
4637;DHT22;2331;48.806;9.140;2022-09-09T06:43:31;18.90;1.00
4637;DHT22;2331;48.806;9.140;2022-09-09T06:46:01;18.90;1.00
4637;DHT22;2331;48.806;9.140;2022-09-09T06:48:28;18.90;1.00
4637;DHT22;2331;48.806;9.140;2022-09-09T06:51:02;18.80;1.00
4637;DHT22;2331;48.806;9.140;2022-09-09T06:53:29;18.80;1.00
4637;DHT22;2331;48.806;9.140;2022-09-09T06:55:59;18.80;1.00
4637;DHT22;2331;48.806;9.140;2022-09-09T06:58:26;18.80;1.00
4637;DHT22;2331;48.806;9.140;2022-09-09T07:01:03;18.90;1.00
4637;DHT22;2331;48.806;9.140;2022-09-09T07:03:30;19.00;1.00
4637;DHT22;2331;48.806;9.140;2022-09-09T07:05:56;19.00;1.00
4637;DHT22;2331;48.806;9.140;2022-09-09T07:08:23;19.10;1.00
4637;DHT22;2331;48.806;9.140;2022-09-09T07:10:52;19.10;1.00
4637;DHT22;2331;48.806;9.140;2022-09-09T07:13:19;19.10;1.00
4637;DHT22;2331;48.806;9.140;2022-09-09T07:15:46;19.20;1.00
4637;DHT22;2331;48.806;9.140;2022-09-09T07:18:14;19.10;1.00
4637;DHT22;2331;48.806;9.140;2022-09-09T07:20:41;19.20;1.00
4637;DHT22;2331;48.806;9.140;2022-09-09T07:23:08;19.20;1.00
4637;DHT22;2331;48.806;9.140;2022-09-09T07:25:34;19.30;1.00
4637;DHT22;2331;48.806;9.140;2022-09-09T07:28:01;19.30;1.00
4637;DHT22;2331;48.806;9.140;2022-09-09T07:30:28;19.30;1.00
4637;DHT22;2331;48.806;9.140;2022-09-09T07:32:55;19.30;1.00
4637;DHT22;2331;48.806;9.140;2022-09-09T07:35:25;19.40;1.00
4637;DHT22;2331;48.806;9.140;2022-09-09T07:37:52;19.40;1.00
4637;DHT22;2331;48.806;9.140;2022-09-09T07:40:19;19.40;1.00
4637;DHT22;2331;48.806;9.140;2022-09-09T07:42:47;19.50;1.00
4637;DHT22;2331;48.806;9.140;2022-09-09T07:45:14;19.50;1.00
4637;DHT22;2331;48.806;9.140;2022-09-09T07:47:40;19.50;1.00
4637;DHT22;2331;48.806;9.140;2022-09-09T07:50:08;19.50;1.00
4637;DHT22;2331;48.806;9.140;2022-09-09T07:52:39;19.50;1.00
4637;DHT22;2331;48.806;9.140;2022-09-09T07:55:06;19.60;1.00
4637;DHT22;2331;48.806;9.140;2022-09-09T07:57:32;19.70;1.00
4637;DHT22;2331;48.806;9.140;2022-09-09T07:59:59;19.70;1.00
4637;DHT22;2331;48.806;9.140;2022-09-09T08:02:26;19.70;1.00
4637;DHT22;2331;48.806;9.140;2022-09-09T08:04:54;19.80;1.00
4637;DHT22;2331;48.806;9.140;2022-09-09T08:07:21;19.80;1.00
4637;DHT22;2331;48.806;9.140;2022-09-09T08:09:50;19.80;1.00
4637;DHT22;2331;48.806;9.140;2022-09-09T08:12:16;19.90;1.00
4637;DHT22;2331;48.806;9.140;2022-09-09T08:14:43;19.90;1.00
4637;DHT22;2331;48.806;9.140;2022-09-09T08:17:10;20.00;1.00
4637;DHT22;2331;48.806;9.140;2022-09-09T08:19:37;20.00;1.00
4637;DHT22;2331;48.806;9.140;2022-09-09T08:22:04;20.10;1.00
4637;DHT22;2331;48.806;9.140;2022-09-09T08:24:30;20.00;1.00
4637;DHT22;2331;48.806;9.140;2022-09-09T08:26:59;20.10;1.00
4637;DHT22;2331;48.806;9.140;2022-09-09T08:29:25;20.20;1.00
4637;DHT22;2331;48.806;9.140;2022-09-09T08:31:55;20.30;1.00
4637;DHT22;2331;48.806;9.140;2022-09-09T08:34:23;20.40;1.00
4637;DHT22;2331;48.806;9.140;2022-09-09T08:36:52;20.40;1.00
4637;DHT22;2331;48.806;9.140;2022-09-09T08:39:21;20.40;1.00
4637;DHT22;2331;48.806;9.140;2022-09-09T08:47:50;20.60;1.00
4637;DHT22;2331;48.806;9.140;2022-09-09T08:50:22;20.70;1.00
4637;DHT22;2331;48.806;9.140;2022-09-09T08:52:57;20.60;1.00
4637;DHT22;2331;48.806;9.140;2022-09-09T08:55:35;20.70;1.00
4637;DHT22;2331;48.806;9.140;2022-09-09T08:58:11;20.80;1.00
4637;DHT22;2331;48.806;9.140;2022-09-09T09:00:50;20.80;1.00
4637;DHT22;2331;48.806;9.140;2022-09-09T09:03:25;20.90;1.00
4637;DHT22;2331;48.806;9.140;2022-09-09T09:05:59;20.90;1.00
4637;DHT22;2331;48.806;9.140;2022-09-09T09:08:33;20.90;1.00
4637;DHT22;2331;48.806;9.140;2022-09-09T09:11:04;20.90;1.00
4637;DHT22;2331;48.806;9.140;2022-09-09T09:13:38;21.00;1.00
4637;DHT22;2331;48.806;9.140;2022-09-09T09:16:14;21.10;1.00
4637;DHT22;2331;48.806;9.140;2022-09-09T09:18:44;21.00;1.00
4637;DHT22;2331;48.806;9.140;2022-09-09T09:21:13;21.00;1.00
4637;DHT22;2331;48.806;9.140;2022-09-09T09:23:51;20.90;1.00
4637;DHT22;2331;48.806;9.140;2022-09-09T09:26:21;20.80;1.00
4637;DHT22;2331;48.806;9.140;2022-09-09T09:28:50;20.90;1.00
4637;DHT22;2331;48.806;9.140;2022-09-09T09:31:20;20.90;1.00
4637;DHT22;2331;48.806;9.140;2022-09-09T09:33:49;20.80;1.00
4637;DHT22;2331;48.806;9.140;2022-09-09T09:36:16;20.80;1.00
4637;DHT22;2331;48.806;9.140;2022-09-09T09:38:54;20.80;1.00
4637;DHT22;2331;48.806;9.140;2022-09-09T09:41:33;20.70;1.00
4637;DHT22;2331;48.806;9.140;2022-09-09T09:44:03;20.70;1.00
4637;DHT22;2331;48.806;9.140;2022-09-09T09:46:30;20.70;1.00
4637;DHT22;2331;48.806;9.140;2022-09-09T09:48:58;20.80;1.00
4637;DHT22;2331;48.806;9.140;2022-09-09T09:51:30;20.80;1.00
4637;DHT22;2331;48.806;9.140;2022-09-09T09:54:20;20.80;1.00
4637;DHT22;2331;48.806;9.140;2022-09-09T09:56:51;21.00;1.00
4637;DHT22;2331;48.806;9.140;2022-09-09T09:59:32;21.00;1.00
4637;DHT22;2331;48.806;9.140;2022-09-09T10:02:16;21.10;1.00
4637;DHT22;2331;48.806;9.140;2022-09-09T10:04:44;21.20;1.00
4637;DHT22;2331;48.806;9.140;2022-09-09T10:07:12;21.30;1.00
4637;DHT22;2331;48.806;9.140;2022-09-09T10:09:39;21.40;1.00
4637;DHT22;2331;48.806;9.140;2022-09-09T10:12:15;21.50;1.00
4637;DHT22;2331;48.806;9.140;2022-09-09T10:14:53;21.50;1.00
4637;DHT22;2331;48.806;9.140;2022-09-09T10:17:26;21.60;1.00
4637;DHT22;2331;48.806;9.140;2022-09-09T10:20:12;21.80;1.00
4637;DHT22;2331;48.806;9.140;2022-09-09T10:22:47;21.80;1.00
4637;DHT22;2331;48.806;9.140;2022-09-09T10:25:26;21.90;1.00
4637;DHT22;2331;48.806;9.140;2022-09-09T10:28:17;21.90;1.00
4637;DHT22;2331;48.806;9.140;2022-09-09T10:30:55;21.70;1.00
4637;DHT22;2331;48.806;9.140;2022-09-09T10:33:32;21.60;1.00
4637;DHT22;2331;48.806;9.140;2022-09-09T10:36:08;21.90;1.00
4637;DHT22;2331;48.806;9.140;2022-09-09T10:38:40;21.80;1.00
4637;DHT22;2331;48.806;9.140;2022-09-09T10:41:16;22.00;1.00
4637;DHT22;2331;48.806;9.140;2022-09-09T10:44:15;22.20;1.00
4637;DHT22;2331;48.806;9.140;2022-09-09T10:46:58;22.30;1.00
4637;DHT22;2331;48.806;9.140;2022-09-09T10:49:47;22.40;1.00
4637;DHT22;2331;48.806;9.140;2022-09-09T10:52:24;22.30;1.00
4637;DHT22;2331;48.806;9.140;2022-09-09T10:58:20;22.50;1.00
4637;DHT22;2331;48.806;9.140;2022-09-09T11:04:15;22.40;1.00
4637;DHT22;2331;48.806;9.140;2022-09-09T11:06:47;22.50;1.00
4637;DHT22;2331;48.806;9.140;2022-09-09T11:12:40;22.20;1.00
4637;DHT22;2331;48.806;9.140;2022-09-09T11:15:16;21.90;1.00
4637;DHT22;2331;48.806;9.140;2022-09-09T11:17:48;21.60;1.00
4637;DHT22;2331;48.806;9.140;2022-09-09T11:27:06;21.30;1.00
4637;DHT22;2331;48.806;9.140;2022-09-09T11:30:00;21.30;1.00
4637;DHT22;2331;48.806;9.140;2022-09-09T11:32:59;21.20;1.00
4637;DHT22;2331;48.806;9.140;2022-09-09T11:35:34;21.00;1.00
4637;DHT22;2331;48.806;9.140;2022-09-09T11:38:18;20.90;1.00
4637;DHT22;2331;48.806;9.140;2022-09-09T11:40:47;20.90;1.00
4637;DHT22;2331;48.806;9.140;2022-09-09T11:43:24;20.90;1.00
4637;DHT22;2331;48.806;9.140;2022-09-09T11:45:54;21.00;1.00
4637;DHT22;2331;48.806;9.140;2022-09-09T11:48:26;20.90;1.00
4637;DHT22;2331;48.806;9.140;2022-09-09T11:50:59;21.00;1.00
4637;DHT22;2331;48.806;9.140;2022-09-09T11:53:26;21.10;1.00
4637;DHT22;2331;48.806;9.140;2022-09-09T11:56:10;20.90;1.00
4637;DHT22;2331;48.806;9.140;2022-09-09T11:58:42;20.90;1.00
4637;DHT22;2331;48.806;9.140;2022-09-09T12:01:33;21.00;1.00
4637;DHT22;2331;48.806;9.140;2022-09-09T12:04:11;21.10;1.00
4637;DHT22;2331;48.806;9.140;2022-09-09T12:06:44;21.30;1.00
4637;DHT22;2331;48.806;9.140;2022-09-09T12:09:21;21.30;1.00
4637;DHT22;2331;48.806;9.140;2022-09-09T12:11:49;21.40;1.00
4637;DHT22;2331;48.806;9.140;2022-09-09T12:14:34;21.50;1.00
4637;DHT22;2331;48.806;9.140;2022-09-09T12:17:18;21.50;1.00
4637;DHT22;2331;48.806;9.140;2022-09-09T12:19:46;21.60;1.00
4637;DHT22;2331;48.806;9.140;2022-09-09T12:22:20;21.70;1.00
4637;DHT22;2331;48.806;9.140;2022-09-09T12:24:57;21.70;1.00
4637;DHT22;2331;48.806;9.140;2022-09-09T12:27:29;21.90;1.00
4637;DHT22;2331;48.806;9.140;2022-09-09T12:30:02;22.10;1.00
4637;DHT22;2331;48.806;9.140;2022-09-09T12:32:29;22.20;1.00
4637;DHT22;2331;48.806;9.140;2022-09-09T12:34:59;22.10;1.00
4637;DHT22;2331;48.806;9.140;2022-09-09T12:37:31;22.00;1.00
4637;DHT22;2331;48.806;9.140;2022-09-09T12:40:00;22.10;1.00
4637;DHT22;2331;48.806;9.140;2022-09-09T12:42:29;22.10;1.00
4637;DHT22;2331;48.806;9.140;2022-09-09T12:44:57;22.00;1.00
4637;DHT22;2331;48.806;9.140;2022-09-09T12:47:32;21.90;1.00
4637;DHT22;2331;48.806;9.140;2022-09-09T12:50:01;22.00;1.00
4637;DHT22;2331;48.806;9.140;2022-09-09T12:52:31;21.90;1.00
4637;DHT22;2331;48.806;9.140;2022-09-09T12:55:01;21.90;1.00
4637;DHT22;2331;48.806;9.140;2022-09-09T12:57:33;22.20;1.00
4637;DHT22;2331;48.806;9.140;2022-09-09T13:00:07;22.50;1.00
4637;DHT22;2331;48.806;9.140;2022-09-09T13:02:46;22.50;1.00
4637;DHT22;2331;48.806;9.140;2022-09-09T13:05:15;22.50;1.00
4637;DHT22;2331;48.806;9.140;2022-09-09T13:07:44;22.60;1.00
4637;DHT22;2331;48.806;9.140;2022-09-09T13:10:11;22.70;1.00
4637;DHT22;2331;48.806;9.140;2022-09-09T13:12:39;22.70;1.00
4637;DHT22;2331;48.806;9.140;2022-09-09T13:15:14;22.80;1.00
4637;DHT22;2331;48.806;9.140;2022-09-09T13:17:50;22.90;1.00
4637;DHT22;2331;48.806;9.140;2022-09-09T13:20:19;23.10;1.00
4637;DHT22;2331;48.806;9.140;2022-09-09T13:22:48;23.10;1.00
4637;DHT22;2331;48.806;9.140;2022-09-09T13:25:23;23.20;1.00
4637;DHT22;2331;48.806;9.140;2022-09-09T13:27:54;23.20;1.00
4637;DHT22;2331;48.806;9.140;2022-09-09T13:30:23;23.40;1.00
4637;DHT22;2331;48.806;9.140;2022-09-09T13:33:02;23.50;1.00
4637;DHT22;2331;48.806;9.140;2022-09-09T13:35:29;23.50;1.00
4637;DHT22;2331;48.806;9.140;2022-09-09T13:37:57;23.50;1.00
4637;DHT22;2331;48.806;9.140;2022-09-09T13:40:24;23.40;1.00
4637;DHT22;2331;48.806;9.140;2022-09-09T13:42:54;23.50;1.00
4637;DHT22;2331;48.806;9.140;2022-09-09T13:45:23;23.60;1.00
4637;DHT22;2331;48.806;9.140;2022-09-09T13:47:53;23.80;1.00
4637;DHT22;2331;48.806;9.140;2022-09-09T13:53:45;23.70;1.00
4637;DHT22;2331;48.806;9.140;2022-09-09T13:56:12;23.60;1.00
4637;DHT22;2331;48.806;9.140;2022-09-09T13:58:39;23.60;1.00
4637;DHT22;2331;48.806;9.140;2022-09-09T14:01:06;23.70;1.00
4637;DHT22;2331;48.806;9.140;2022-09-09T14:03:32;23.80;1.00
4637;DHT22;2331;48.806;9.140;2022-09-09T14:06:00;23.90;1.00
4637;DHT22;2331;48.806;9.140;2022-09-09T14:08:27;23.80;1.00
4637;DHT22;2331;48.806;9.140;2022-09-09T14:11:03;23.70;1.00
4637;DHT22;2331;48.806;9.140;2022-09-09T14:13:30;23.80;1.00
4637;DHT22;2331;48.806;9.140;2022-09-09T14:15:57;23.70;1.00
4637;DHT22;2331;48.806;9.140;2022-09-09T14:18:26;23.90;1.00
4637;DHT22;2331;48.806;9.140;2022-09-09T14:20:52;23.90;1.00
4637;DHT22;2331;48.806;9.140;2022-09-09T14:23:19;24.00;1.00
4637;DHT22;2331;48.806;9.140;2022-09-09T14:25:47;24.00;1.00
4637;DHT22;2331;48.806;9.140;2022-09-09T14:28:16;24.10;1.00
4637;DHT22;2331;48.806;9.140;2022-09-09T14:30:43;24.10;1.00
4637;DHT22;2331;48.806;9.140;2022-09-09T14:33:12;24.00;1.00
4637;DHT22;2331;48.806;9.140;2022-09-09T14:35:39;23.90;1.00
4637;DHT22;2331;48.806;9.140;2022-09-09T14:38:07;24.00;1.00
4637;DHT22;2331;48.806;9.140;2022-09-09T14:40:34;24.00;1.00
4637;DHT22;2331;48.806;9.140;2022-09-09T14:43:01;24.00;1.00
4637;DHT22;2331;48.806;9.140;2022-09-09T14:45:29;24.00;1.00
4637;DHT22;2331;48.806;9.140;2022-09-09T14:47:56;23.90;1.00
4637;DHT22;2331;48.806;9.140;2022-09-09T14:50:23;23.90;1.00
4637;DHT22;2331;48.806;9.140;2022-09-09T14:52:50;23.90;1.00
4637;DHT22;2331;48.806;9.140;2022-09-09T14:55:17;24.00;1.00
4637;DHT22;2331;48.806;9.140;2022-09-09T14:57:44;23.90;1.00
4637;DHT22;2331;48.806;9.140;2022-09-09T15:00:11;23.70;1.00
4637;DHT22;2331;48.806;9.140;2022-09-09T15:02:40;23.70;1.00
4637;DHT22;2331;48.806;9.140;2022-09-09T15:05:07;23.60;1.00
4637;DHT22;2331;48.806;9.140;2022-09-09T15:07:34;23.70;1.00
4637;DHT22;2331;48.806;9.140;2022-09-09T15:10:02;23.80;1.00
4637;DHT22;2331;48.806;9.140;2022-09-09T15:12:29;23.50;1.00
4637;DHT22;2331;48.806;9.140;2022-09-09T15:14:55;23.50;1.00
4637;DHT22;2331;48.806;9.140;2022-09-09T15:17:25;23.40;1.00
4637;DHT22;2331;48.806;9.140;2022-09-09T15:19:55;23.50;1.00
4637;DHT22;2331;48.806;9.140;2022-09-09T15:22:22;23.50;1.00
4637;DHT22;2331;48.806;9.140;2022-09-09T15:24:49;23.60;1.00
4637;DHT22;2331;48.806;9.140;2022-09-09T15:27:19;23.50;1.00
4637;DHT22;2331;48.806;9.140;2022-09-09T15:29:47;23.50;1.00
4637;DHT22;2331;48.806;9.140;2022-09-09T15:32:13;23.50;1.00
4637;DHT22;2331;48.806;9.140;2022-09-09T15:34:40;23.50;1.00
4637;DHT22;2331;48.806;9.140;2022-09-09T15:37:11;23.50;1.00
4637;DHT22;2331;48.806;9.140;2022-09-09T15:39:39;23.60;1.00
4637;DHT22;2331;48.806;9.140;2022-09-09T15:42:06;23.70;1.00
4637;DHT22;2331;48.806;9.140;2022-09-09T15:44:39;23.60;1.00
4637;DHT22;2331;48.806;9.140;2022-09-09T15:47:07;23.50;1.00
4637;DHT22;2331;48.806;9.140;2022-09-09T15:49:37;23.30;1.00
4637;DHT22;2331;48.806;9.140;2022-09-09T15:52:04;23.30;1.00
4637;DHT22;2331;48.806;9.140;2022-09-09T15:54:34;23.30;1.00
4637;DHT22;2331;48.806;9.140;2022-09-09T15:57:03;23.30;1.00
4637;DHT22;2331;48.806;9.140;2022-09-09T15:59:31;23.30;1.00
4637;DHT22;2331;48.806;9.140;2022-09-09T16:01:59;23.30;1.00
4637;DHT22;2331;48.806;9.140;2022-09-09T16:04:27;23.20;1.00
4637;DHT22;2331;48.806;9.140;2022-09-09T16:06:56;23.10;1.00
4637;DHT22;2331;48.806;9.140;2022-09-09T16:09:24;23.10;1.00
4637;DHT22;2331;48.806;9.140;2022-09-09T16:11:55;23.10;1.00
4637;DHT22;2331;48.806;9.140;2022-09-09T16:14:23;23.10;1.00
4637;DHT22;2331;48.806;9.140;2022-09-09T16:16:51;23.00;1.00
4637;DHT22;2331;48.806;9.140;2022-09-09T16:19:18;23.00;1.00
4637;DHT22;2331;48.806;9.140;2022-09-09T16:21:46;23.10;1.00
4637;DHT22;2331;48.806;9.140;2022-09-09T16:24:15;23.00;1.00
4637;DHT22;2331;48.806;9.140;2022-09-09T16:26:44;23.00;1.00
4637;DHT22;2331;48.806;9.140;2022-09-09T16:29:13;22.80;1.00
4637;DHT22;2331;48.806;9.140;2022-09-09T16:31:40;22.60;1.00
4637;DHT22;2331;48.806;9.140;2022-09-09T16:34:08;22.40;1.00
4637;DHT22;2331;48.806;9.140;2022-09-09T16:36:36;22.00;1.00
4637;DHT22;2331;48.806;9.140;2022-09-09T16:39:06;21.70;1.00
4637;DHT22;2331;48.806;9.140;2022-09-09T16:41:34;21.70;1.00
4637;DHT22;2331;48.806;9.140;2022-09-09T16:44:03;21.60;1.00
4637;DHT22;2331;48.806;9.140;2022-09-09T16:46:33;21.60;1.00
4637;DHT22;2331;48.806;9.140;2022-09-09T16:49:01;21.60;1.00
4637;DHT22;2331;48.806;9.140;2022-09-09T16:51:30;21.60;1.00
4637;DHT22;2331;48.806;9.140;2022-09-09T16:53:59;21.50;1.00
4637;DHT22;2331;48.806;9.140;2022-09-09T16:56:28;21.60;1.00
4637;DHT22;2331;48.806;9.140;2022-09-09T16:58:57;21.50;1.00
4637;DHT22;2331;48.806;9.140;2022-09-09T17:01:25;21.60;1.00
4637;DHT22;2331;48.806;9.140;2022-09-09T17:03:54;21.60;1.00
4637;DHT22;2331;48.806;9.140;2022-09-09T17:06:21;21.60;1.00
4637;DHT22;2331;48.806;9.140;2022-09-09T17:08:54;21.60;1.00
4637;DHT22;2331;48.806;9.140;2022-09-09T17:11:21;21.60;1.00
4637;DHT22;2331;48.806;9.140;2022-09-09T17:13:49;21.60;1.00